KJCT/JCT METAR and TAF weather

Enter ICAO airport designator
Station Type Date Time Source
KJCT METAR 2023/01/30 10:51 UTC NOAA

KJCT 301051Z AUTO 05008KT 6SM BR OVC006 M01/M01 A3016 RMK AO2 SLP201 T10061011 $


Station Type Date Time Source
KJCT Decoded METAR 2023/01/30 10:51 UTC NOAA

KIMBLE COUNTY AIRPORT, TX, United States (KJCT) 30-31N 099-46W 523M
Jan 30, 2023 - 05:51 AM EST / 2023.01.30 1051 UTC
Wind: from the NE (050 degrees) at 9 MPH (8 KT):0
Visibility: 6 mile(s):0
Sky conditions: overcast
Weather: mist
Temperature: 30.9 F (-0.6 C)
Windchill: 23 F (-5 C):1
Dew Point: 30.0 F (-1.1 C)
Relative Humidity: 96%
Pressure (altimeter): 30.16 in. Hg (1021 hPa)
ob: KJCT 301051Z AUTO 05008KT 6SM BR OVC006 M01/M01 A3016 RMK AO2 SLP201 T10061011
cycle: 11

Station Type Date Time Source
KJCT TAF 2023/01/30 06:22 UTC NOAA

TAF KJCT 300520Z 3006/3106 04009KT 1SM BR OVC003
FM301300 05010KT 5SM -FZDZ OVC007
FM301900 03007KT P6SM OVC008

Example: see airport list